Norse Mersey — IBEN — position and weather

sailwx.info

Track history (hours):
 
Tides and Currents Weather Stations Pressure Air Temp Water Temp Dewpoint Dewpoint Depression Visibility Wind Speed Wind Dir Waves Ship Positions

Norse Mersey

Operator: Norse Merchant Ferries

Last reported at 2018-Feb-22 07:12 UTC. Time now 2018-Feb-22 17:09 UTC.
Position N 38°04' E 015°32'.

Length 175 m; draft 5.7 m.

Type: Passenger vessel. MMSI: 247026000.

Date/timePositionNaut miles runAvg speedWind from/ knotsBaromVisibWave heightAir tempDewpointWater temp
2018-Feb-22 07:12N 38°04' E 015°32'415.4
2018-Feb-22 06:57N 38°07' E 015°34'614.4
2018-Feb-22 06:30N 38°14' E 015°36'612.4
2018-Feb-22 06:00N 38°19' E 015°40'815.9
2018-Feb-22 05:30N 38°26' E 015°36'916.0
2018-Feb-22 04:58N 38°34' E 015°32'5315.6
2018-Feb-22 01:32N 39°25' E 015°09'5315.8
2018-Feb-21 22:11N 40°15' E 014°46'1115.8
2018-Feb-21 21:28N 40°26' E 014°44'815.7
2018-Feb-21 20:56N 40°34' E 014°43'68 4.1
2018-Feb-21 04:27N 39°29' E 015°08'6016.2
2018-Feb-21 00:46N 38°33' E 015°35'616.4
2018-Feb-21 00:23N 38°28' E 015°38'616.1
2018-Feb-21 00:00N 38°22' E 015°41'712.6
2018-Feb-20 23:27N 38°15' E 015°39'612.8
2018-Feb-20 23:00N 38°10' E 015°37'815.2
2018-Feb-20 22:30N 38°02' E 015°35'11 0.8
2018-Feb-20 08:22N 37°54' E 015°26'1216.0
2018-Feb-20 07:38N 38°05' E 015°33'216.3
2018-Feb-20 07:30N 38°07' E 015°34'815.2
2018-Feb-20 06:59N 38°14' E 015°36'612.1
2018-Feb-20 06:30N 38°19' E 015°40'815.8
2018-Feb-20 06:00N 38°27' E 015°37'  
2018-Feb-17 12:05N 38°35' E 015°35'514.4
2018-Feb-17 11:45N 38°31' E 015°36'414.3
2018-Feb-17 11:30N 38°27' E 015°38'714.3
2018-Feb-17 11:01N 38°21' E 015°41'711.5
2018-Feb-17 10:26N 38°15' E 015°39'511.3
2018-Feb-17 10:00N 38°10' E 015°37'714.2
2018-Feb-17 09:29N 38°03' E 015°36'10 0.5
2018-Feb-16 10:41N 37°55' E 015°27'715.5
2018-Feb-16 10:12N 38°02' E 015°31'315.2
2018-Feb-16 09:59N 38°05' E 015°33'815.4
2018-Feb-16 09:29N 38°12' E 015°36'715.1
2018-Feb-16 09:00N 38°19' E 015°40'815.2
2018-Feb-16 08:30N 38°26' E 015°37'815.0
2018-Feb-16 07:58N 38°33' E 015°34'5514.9
2018-Feb-16 04:16N 39°25' E 015°09'6614.6
2018-Feb-15 23:45N 40°28' E 014°44'414.7
2018-Feb-15 23:29N 40°32' E 014°43'65 4.8
2018-Feb-15 09:58N 39°29' E 015°08'5613.3
2018-Feb-15 05:45N 38°37' E 015°33'413.0
2018-Feb-15 05:29N 38°33' E 015°35'613.2
2018-Feb-15 05:00N 38°27' E 015°37'713.4
2018-Feb-15 04:30N 38°21' E 015°41'612.1
2018-Feb-15 03:59N 38°15' E 015°39'613.2
2018-Feb-15 03:30N 38°09' E 015°37'713.3
2018-Feb-15 02:59N 38°02' E 015°35'11 0.9
2018-Feb-14 14:42N 37°54' E 015°26'814.9
2018-Feb-14 14:09N 38°02' E 015°31'314.8
2018-Feb-14 13:58N 38°04' E 015°32'613.0
2018-Feb-14 13:30N 38°10' E 015°35'813.7
2018-Feb-14 12:54N 38°17' E 015°40'513.4
2018-Feb-14 12:30N 38°22' E 015°39'814.5
2018-Feb-14 11:58N 38°29' E 015°35'5914.5
2018-Feb-14 07:54N 39°25' E 015°09'513.7
2018-Feb-14 07:30N 39°30' E 015°10'56 2.7
2018-Feb-13 10:57N 38°37' E 015°34'713.9
2018-Feb-13 10:29N 38°31' E 015°38'714.1
2018-Feb-13 10:00N 38°25' E 015°40'813.6
2018-Feb-13 09:26N 38°17' E 015°43'512.1
2018-Feb-13 09:00N 38°14' E 015°38'612.5
2018-Feb-13 08:30N 38°08' E 015°38'713.6
2018-Feb-13 08:00N 38°02' E 015°35'110 7.6
2018-Feb-12 17:27N 36°18' E 014°47'614.3
2018-Feb-12 17:00N 36°15' E 014°40'612.1
2018-Feb-12 16:30N 36°09' E 014°38'713.8
2018-Feb-12 15:59N 36°02' E 014°37'913.0
2018-Feb-12 15:17N 35°54' E 014°32'0 0.1
2018-Feb-12 08:38N 35°54' E 014°32'1 8.2
2018-Feb-12 08:30N 35°55' E 014°33'712.9
2018-Feb-12 07:58N 36°00' E 014°38'  
Track history (hours):
 
Tides and Currents Weather Stations Pressure Air Temp Water Temp Dewpoint Dewpoint Depression Visibility Wind Speed Wind Dir Waves Ship Positions

Norse Mersey

Operator: Norse Merchant Ferries

Last reported at 2018-Feb-22 07:12 UTC. Time now 2018-Feb-22 17:09 UTC.
Position N 38°04' E 015°32'.

Length 175 m; draft 5.7 m.

Type: Passenger vessel. MMSI: 247026000.

Date/timePositionNaut miles runAvg speedWind from/ knotsBaromVisibWave heightAir tempDewpointWater temp
2018-Feb-22 07:12N 38°04' E 015°32'415.4
2018-Feb-22 06:57N 38°07' E 015°34'614.4
2018-Feb-22 06:30N 38°14' E 015°36'612.4
2018-Feb-22 06:00N 38°19' E 015°40'815.9
2018-Feb-22 05:30N 38°26' E 015°36'916.0
2018-Feb-22 04:58N 38°34' E 015°32'5315.6
2018-Feb-22 01:32N 39°25' E 015°09'5315.8
2018-Feb-21 22:11N 40°15' E 014°46'1115.8
2018-Feb-21 21:28N 40°26' E 014°44'815.7
2018-Feb-21 20:56N 40°34' E 014°43'68 4.1
2018-Feb-21 04:27N 39°29' E 015°08'6016.2
2018-Feb-21 00:46N 38°33' E 015°35'616.4
2018-Feb-21 00:23N 38°28' E 015°38'616.1
2018-Feb-21 00:00N 38°22' E 015°41'712.6
2018-Feb-20 23:27N 38°15' E 015°39'612.8
2018-Feb-20 23:00N 38°10' E 015°37'815.2
2018-Feb-20 22:30N 38°02' E 015°35'11 0.8
2018-Feb-20 08:22N 37°54' E 015°26'1216.0
2018-Feb-20 07:38N 38°05' E 015°33'216.3
2018-Feb-20 07:30N 38°07' E 015°34'815.2
2018-Feb-20 06:59N 38°14' E 015°36'612.1
2018-Feb-20 06:30N 38°19' E 015°40'815.8
2018-Feb-20 06:00N 38°27' E 015°37'  
2018-Feb-17 12:05N 38°35' E 015°35'514.4
2018-Feb-17 11:45N 38°31' E 015°36'414.3
2018-Feb-17 11:30N 38°27' E 015°38'714.3
2018-Feb-17 11:01N 38°21' E 015°41'711.5
2018-Feb-17 10:26N 38°15' E 015°39'511.3
2018-Feb-17 10:00N 38°10' E 015°37'714.2
2018-Feb-17 09:29N 38°03' E 015°36'10 0.5
2018-Feb-16 10:41N 37°55' E 015°27'715.5
2018-Feb-16 10:12N 38°02' E 015°31'315.2
2018-Feb-16 09:59N 38°05' E 015°33'815.4
2018-Feb-16 09:29N 38°12' E 015°36'715.1
2018-Feb-16 09:00N 38°19' E 015°40'815.2
2018-Feb-16 08:30N 38°26' E 015°37'815.0
2018-Feb-16 07:58N 38°33' E 015°34'5514.9
2018-Feb-16 04:16N 39°25' E 015°09'6614.6
2018-Feb-15 23:45N 40°28' E 014°44'414.7
2018-Feb-15 23:29N 40°32' E 014°43'65 4.8
2018-Feb-15 09:58N 39°29' E 015°08'5613.3
2018-Feb-15 05:45N 38°37' E 015°33'413.0
2018-Feb-15 05:29N 38°33' E 015°35'613.2
2018-Feb-15 05:00N 38°27' E 015°37'713.4
2018-Feb-15 04:30N 38°21' E 015°41'612.1
2018-Feb-15 03:59N 38°15' E 015°39'613.2
2018-Feb-15 03:30N 38°09' E 015°37'713.3
2018-Feb-15 02:59N 38°02' E 015°35'11 0.9
2018-Feb-14 14:42N 37°54' E 015°26'814.9
2018-Feb-14 14:09N 38°02' E 015°31'314.8
2018-Feb-14 13:58N 38°04' E 015°32'613.0
2018-Feb-14 13:30N 38°10' E 015°35'813.7
2018-Feb-14 12:54N 38°17' E 015°40'513.4
2018-Feb-14 12:30N 38°22' E 015°39'814.5
2018-Feb-14 11:58N 38°29' E 015°35'5914.5
2018-Feb-14 07:54N 39°25' E 015°09'513.7
2018-Feb-14 07:30N 39°30' E 015°10'56 2.7
2018-Feb-13 10:57N 38°37' E 015°34'713.9
2018-Feb-13 10:29N 38°31' E 015°38'714.1
2018-Feb-13 10:00N 38°25' E 015°40'813.6
2018-Feb-13 09:26N 38°17' E 015°43'512.1
2018-Feb-13 09:00N 38°14' E 015°38'612.5
2018-Feb-13 08:30N 38°08' E 015°38'713.6
2018-Feb-13 08:00N 38°02' E 015°35'110 7.6
2018-Feb-12 17:27N 36°18' E 014°47'614.3
2018-Feb-12 17:00N 36°15' E 014°40'612.1
2018-Feb-12 16:30N 36°09' E 014°38'713.8
2018-Feb-12 15:59N 36°02' E 014°37'913.0
2018-Feb-12 15:17N 35°54' E 014°32'0 0.1
2018-Feb-12 08:38N 35°54' E 014°32'1 8.2
2018-Feb-12 08:30N 35°55' E 014°33'712.9
2018-Feb-12 07:58N 36°00' E 014°38'  

Dump ship's entire track history